Time;durP1;ratioP1;P1;durP2;ratioP2;P2;SDS_P1;SDS_P2;PMS_P1;PMS_P2;Temp;Humidity;BMP_temperature;BMP_pressure;BME280_temperature;BME280_humidity;BME280_pressure;Samples;Min_cycle;Max_cycle;Signal;HPM_P1;HPM_P2
2023/07/30 00:02:01;;;;;;;27.95;7.88;;;16.30;99.90;;;;;;5052097;28;20041;-77
2023/07/30 00:04:48;;;;;;;25.75;7.32;;;16.40;99.90;;;;;;5034334;28;20063;-77
2023/07/30 00:07:34;;;;;;;30.77;8.02;;;16.40;99.90;;;;;;5034453;28;20053;-77
2023/07/30 00:10:20;;;;;;;23.30;7.13;;;16.40;99.90;;;;;;5051320;28;20186;-77
2023/07/30 00:13:07;;;;;;;32.80;8.32;;;16.40;99.90;;;;;;5052527;28;20102;-76
2023/07/30 00:15:53;;;;;;;29.15;7.72;;;16.30;99.90;;;;;;5052657;28;20099;-77
2023/07/30 00:18:39;;;;;;;25.15;7.63;;;16.30;99.90;;;;;;5051178;28;20061;-76
2023/07/30 00:21:25;;;;;;;30.17;8.00;;;16.30;99.90;;;;;;5023872;28;20076;-76
2023/07/30 00:24:15;;;;;;;40.15;8.48;;;16.30;99.90;;;;;;5051757;28;20087;-76
2023/07/30 00:27:01;;;;;;;30.35;8.27;;;16.30;99.90;;;;;;5037846;28;20099;-78
2023/07/30 00:29:47;;;;;;;29.55;8.10;;;16.30;99.90;;;;;;5051753;28;20143;-77
2023/07/30 00:32:33;;;;;;;24.98;7.88;;;16.30;99.90;;;;;;5035078;28;20111;-77
2023/07/30 00:35:19;;;;;;;36.90;7.68;;;16.30;99.90;;;;;;5053313;28;20048;-78
2023/07/30 00:38:05;;;;;;;34.50;9.13;;;16.30;99.90;;;;;;5023244;28;20080;-79
2023/07/30 00:40:51;;;;;;;30.98;8.23;;;16.30;99.90;;;;;;5037517;28;20052;-77
2023/07/30 00:43:37;;;;;;;25.30;7.28;;;16.30;99.90;;;;;;5051035;28;20053;-77
2023/07/30 00:46:24;;;;;;;33.58;8.88;;;16.30;99.90;;;;;;5050847;28;20060;-77
2023/07/30 00:49:10;;;;;;;33.45;9.18;;;16.30;99.90;;;;;;5051172;28;20071;-77
2023/07/30 00:51:56;;;;;;;41.03;9.00;;;16.30;99.90;;;;;;5051177;28;20052;-78
2023/07/30 00:54:42;;;;;;;29.80;8.35;;;16.30;99.90;;;;;;5050715;28;20132;-77
2023/07/30 00:57:30;;;;;;;28.05;8.85;;;16.30;99.90;;;;;;5051757;28;20144;-78
2023/07/30 01:00:17;;;;;;;37.90;9.23;;;16.30;99.90;;;;;;5037042;28;20665;-77
2023/07/30 01:03:04;;;;;;;28.13;8.52;;;16.30;99.90;;;;;;5033236;28;20048;-78
2023/07/30 01:05:50;;;;;;;32.10;8.93;;;16.30;99.90;;;;;;5050828;28;20323;-78
2023/07/30 01:08:37;;;;;;;35.90;10.45;;;16.30;99.90;;;;;;5050511;28;20055;-77
2023/07/30 01:11:23;;;;;;;38.35;8.82;;;16.30;99.90;;;;;;5019503;28;20103;-78
2023/07/30 01:14:10;;;;;;;34.70;9.48;;;16.30;99.90;;;;;;5050241;28;20086;-77
2023/07/30 01:16:56;;;;;;;34.08;9.45;;;16.30;99.90;;;;;;5050007;28;20045;-77
2023/07/30 01:19:42;;;;;;;43.30;10.52;;;16.30;99.90;;;;;;5032397;28;20118;-77
2023/07/30 01:22:29;;;;;;;34.83;8.65;;;16.30;99.90;;;;;;5020233;28;20053;-78
2023/07/30 01:25:15;;;;;;;29.05;10.07;;;16.30;99.90;;;;;;5050618;28;20496;-78
2023/07/30 01:28:05;;;;;;;32.97;9.15;;;16.30;99.90;;;;;;5049550;28;20101;-78
2023/07/30 01:30:51;;;;;;;35.30;9.77;;;16.30;99.90;;;;;;5051074;28;20053;-77
2023/07/30 01:33:39;;;;;;;31.27;8.63;;;16.40;99.90;;;;;;5032664;28;20082;-76
2023/07/30 01:36:27;;;;;;;32.35;9.63;;;16.40;99.90;;;;;;5050300;28;20408;-77
2023/07/30 01:39:13;;;;;;;39.85;10.30;;;16.40;99.90;;;;;;5050814;28;20060;-77
2023/07/30 01:42:00;;;;;;;46.47;9.30;;;16.40;99.90;;;;;;5035909;28;20056;-77
2023/07/30 01:44:46;;;;;;;38.63;10.30;;;16.40;99.90;;;;;;5050117;28;20123;-76
2023/07/30 01:47:32;;;;;;;38.35;9.60;;;16.40;99.90;;;;;;5050555;28;20147;-77
2023/07/30 01:50:18;;;;;;;37.55;8.45;;;16.50;99.90;;;;;;5050350;28;20077;-77
2023/07/30 01:53:04;;;;;;;37.20;8.65;;;16.50;99.90;;;;;;5032506;28;20074;-77
2023/07/30 01:55:50;;;;;;;29.08;8.68;;;16.50;99.90;;;;;;5049759;28;20053;-77
2023/07/30 01:58:36;;;;;;;36.30;8.60;;;16.50;99.90;;;;;;5050529;28;20057;-77
2023/07/30 02:01:22;;;;;;;36.72;8.90;;;16.60;99.90;;;;;;5050884;28;20041;-77
2023/07/30 02:04:08;;;;;;;39.13;9.40;;;16.60;99.90;;;;;;5050630;28;20406;-77
2023/07/30 02:06:54;;;;;;;40.45;9.77;;;16.60;99.90;;;;;;5050559;28;20124;-78
2023/07/30 02:09:40;;;;;;;28.95;8.40;;;16.60;99.90;;;;;;5031806;28;20052;-77
2023/07/30 02:12:26;;;;;;;35.50;8.88;;;16.60;99.90;;;;;;5050505;28;20135;-78
2023/07/30 02:15:12;;;;;;;23.52;8.07;;;16.60;99.90;;;;;;5050340;28;20049;-78
2023/07/30 02:17:58;;;;;;;29.90;9.35;;;16.70;99.90;;;;;;5050348;28;20056;-77
2023/07/30 02:20:45;;;;;;;35.05;8.63;;;16.70;99.90;;;;;;5050644;28;20489;-78
2023/07/30 02:23:31;;;;;;;36.80;8.15;;;16.70;99.90;;;;;;5050193;28;20055;-78
2023/07/30 02:26:17;;;;;;;33.65;7.15;;;16.70;99.90;;;;;;5050151;28;20048;-77
2023/07/30 02:29:03;;;;;;;32.03;8.50;;;16.70;99.90;;;;;;5018541;28;20053;-78
2023/07/30 02:31:49;;;;;;;24.63;6.82;;;16.70;99.90;;;;;;5053763;28;20087;-78
2023/07/30 02:34:35;;;;;;;36.75;7.82;;;16.80;99.90;;;;;;5053860;28;20053;-77
2023/07/30 02:37:21;;;;;;;26.73;7.88;;;16.70;99.90;;;;;;5053809;28;20045;-77
2023/07/30 02:40:07;;;;;;;30.02;7.20;;;16.70;99.90;;;;;;5038630;28;20081;-77
2023/07/30 02:42:54;;;;;;;31.58;7.90;;;16.70;99.90;;;;;;5054241;28;20045;-78
2023/07/30 02:45:40;;;;;;;38.25;7.68;;;16.70;99.90;;;;;;5053472;28;20136;-78
2023/07/30 02:48:26;;;;;;;38.90;9.00;;;16.70;99.90;;;;;;5035982;28;20052;-78
2023/07/30 02:51:12;;;;;;;42.63;8.23;;;16.70;99.90;;;;;;5053336;28;20500;-77
2023/07/30 02:54:01;;;;;;;40.08;7.30;;;16.70;99.90;;;;;;5035607;28;20049;-77
2023/07/30 02:56:47;;;;;;;43.25;8.32;;;16.60;99.90;;;;;;5034789;28;20057;-77
2023/07/30 02:59:35;;;;;;;36.03;8.00;;;16.70;99.90;;;;;;5036007;28;20530;-78
2023/07/30 03:02:21;;;;;;;33.78;7.50;;;16.60;99.90;;;;;;5053200;28;20781;-77
2023/07/30 03:05:08;;;;;;;31.02;6.82;;;16.60;99.90;;;;;;5053232;28;20049;-77
2023/07/30 03:07:54;;;;;;;36.70;7.97;;;16.60;99.90;;;;;;5035108;28;20147;-78
2023/07/30 03:10:40;;;;;;;37.38;9.07;;;16.60;99.90;;;;;;5052435;28;20459;-76
2023/07/30 03:13:26;;;;;;;28.42;8.45;;;16.60;99.90;;;;;;5053289;28;20049;-77
2023/07/30 03:16:12;;;;;;;27.27;6.72;;;16.60;99.90;;;;;;5053291;28;20057;-77
2023/07/30 03:18:58;;;;;;;38.17;7.63;;;16.60;99.90;;;;;;5052084;28;20056;-77
2023/07/30 03:21:44;;;;;;;42.13;8.02;;;16.60;99.90;;;;;;5052803;28;20063;-77
2023/07/30 03:24:30;;;;;;;33.20;7.47;;;16.60;99.90;;;;;;5052500;28;20575;-77
2023/07/30 03:27:16;;;;;;;27.80;7.10;;;16.60;99.90;;;;;;5052571;28;20041;-77
2023/07/30 03:30:03;;;;;;;39.42;7.65;;;16.50;99.90;;;;;;5039567;28;20102;-77
2023/07/30 03:32:49;;;;;;;34.40;7.55;;;16.60;99.90;;;;;;5052799;28;20106;-77
2023/07/30 03:35:35;;;;;;;25.25;7.25;;;16.50;99.90;;;;;;5052788;28;20107;-76
2023/07/30 03:38:21;;;;;;;27.10;6.28;;;16.50;99.90;;;;;;5052724;28;20132;-77
2023/07/30 03:41:07;;;;;;;39.53;7.55;;;16.50;99.90;;;;;;5052597;28;20503;-77
2023/07/30 03:43:53;;;;;;;30.80;6.88;;;16.50;99.90;;;;;;5052550;28;20055;-76
2023/07/30 03:46:39;;;;;;;26.25;6.45;;;16.50;99.90;;;;;;5052630;28;20060;-76
2023/07/30 03:49:25;;;;;;;31.02;5.97;;;16.50;99.90;;;;;;5037307;28;20052;-76
2023/07/30 03:52:11;;;;;;;25.30;6.32;;;16.50;99.90;;;;;;5052720;28;20075;-76
2023/07/30 03:54:57;;;;;;;27.92;6.10;;;16.40;99.90;;;;;;5052146;28;20492;-77
2023/07/30 03:57:44;;;;;;;29.88;7.28;;;16.50;99.90;;;;;;5037322;28;20049;-76
2023/07/30 04:00:30;;;;;;;32.42;6.40;;;16.40;99.90;;;;;;5052548;28;20048;-77
2023/07/30 04:03:16;;;;;;;35.42;7.47;;;16.40;99.90;;;;;;5052465;28;20144;-76
2023/07/30 04:06:02;;;;;;;28.30;8.25;;;16.40;99.90;;;;;;5052170;28;20122;-76
2023/07/30 04:08:48;;;;;;;21.77;5.82;;;16.40;99.90;;;;;;5034990;28;20053;-76
2023/07/30 04:11:34;;;;;;;23.60;5.70;;;16.40;99.90;;;;;;5052164;28;20057;-76
2023/07/30 04:14:20;;;;;;;27.77;6.95;;;16.40;99.90;;;;;;5052185;28;20067;-76
2023/07/30 04:17:06;;;;;;;17.63;5.25;;;16.40;99.90;;;;;;5033849;28;20052;-76
2023/07/30 04:19:56;;;;;;;29.27;6.38;;;16.40;99.90;;;;;;5051252;28;20077;-77
2023/07/30 04:22:42;;;;;;;27.67;5.50;;;16.40;99.90;;;;;;5052082;28;20041;-77
2023/07/30 04:25:28;;;;;;;22.10;5.63;;;16.40;99.90;;;;;;5051790;28;20400;-78
2023/07/30 04:28:14;;;;;;;22.65;5.22;;;16.50;99.90;;;;;;5033559;28;20164;-77
2023/07/30 04:31:00;;;;;;;23.90;6.15;;;16.50;99.90;;;;;;5051623;28;20048;-77
2023/07/30 04:33:46;;;;;;;24.20;5.82;;;16.50;99.90;;;;;;5051707;28;20140;-77
2023/07/30 04:36:32;;;;;;;16.48;4.95;;;16.50;99.90;;;;;;5051464;28;20064;-77
2023/07/30 04:39:18;;;;;;;26.17;4.78;;;16.60;99.90;;;;;;5051551;28;20400;-77
2023/07/30 04:42:04;;;;;;;25.25;6.07;;;16.60;99.90;;;;;;5051903;28;20194;-77
2023/07/30 04:44:50;;;;;;;24.30;4.60;;;16.70;99.90;;;;;;5033357;28;20099;-78
2023/07/30 04:47:36;;;;;;;26.25;4.68;;;16.70;99.90;;;;;;5050648;28;20488;-77
2023/07/30 04:50:22;;;;;;;18.52;3.88;;;16.70;99.90;;;;;;5050714;28;20444;-77
2023/07/30 04:53:08;;;;;;;20.00;4.88;;;16.80;99.90;;;;;;5050837;28;20084;-77
2023/07/30 04:55:58;;;;;;;20.27;4.40;;;16.80;99.90;;;;;;5050278;28;20053;-76
2023/07/30 04:58:44;;;;;;;15.25;3.75;;;16.80;99.90;;;;;;5020016;28;20049;-77
2023/07/30 05:01:31;;;;;;;19.60;4.18;;;16.80;99.90;;;;;;5051838;28;20045;-77
2023/07/30 05:04:17;;;;;;;18.27;4.43;;;16.80;99.90;;;;;;5033770;28;20447;-77
2023/07/30 05:07:03;;;;;;;14.27;4.07;;;16.80;99.90;;;;;;5019472;28;20087;-77
2023/07/30 05:09:49;;;;;;;16.63;3.63;;;16.90;99.90;;;;;;5050899;28;20049;-77
2023/07/30 05:12:35;;;;;;;15.73;3.05;;;16.90;99.90;;;;;;5036074;28;20155;-77
2023/07/30 05:15:21;;;;;;;22.95;4.97;;;17.00;99.90;;;;;;5050672;28;20049;-77
2023/07/30 05:18:07;;;;;;;18.40;3.97;;;17.00;99.90;;;;;;5050585;28;20055;-77
2023/07/30 05:20:54;;;;;;;32.40;4.82;;;17.10;99.90;;;;;;5050105;28;20194;-77
2023/07/30 05:23:40;;;;;;;17.27;4.18;;;17.20;99.90;;;;;;5050919;28;20049;-77
2023/07/30 05:26:26;;;;;;;16.67;4.60;;;17.30;99.90;;;;;;5033156;28;20049;-77
2023/07/30 05:29:12;;;;;;;14.65;3.55;;;17.30;99.90;;;;;;5050944;28;20057;-77
2023/07/30 05:31:58;;;;;;;15.10;3.53;;;17.30;99.90;;;;;;5050850;28;20049;-77
2023/07/30 05:34:44;;;;;;;14.10;3.10;;;17.30;99.90;;;;;;5050009;28;20066;-77
2023/07/30 05:37:31;;;;;;;19.88;5.25;;;17.30;99.90;;;;;;5050750;28;20285;-76
2023/07/30 05:40:17;;;;;;;14.85;4.07;;;17.30;99.90;;;;;;5033183;28;20144;-78
2023/07/30 05:43:04;;;;;;;15.38;3.25;;;17.30;99.90;;;;;;5050669;28;20049;-77
2023/07/30 05:45:50;;;;;;;16.13;3.28;;;17.30;99.90;;;;;;5019174;28;20053;-77
2023/07/30 05:48:36;;;;;;;15.57;3.25;;;17.30;99.90;;;;;;5051399;28;20071;-76
2023/07/30 05:51:22;;;;;;;15.23;3.10;;;17.30;99.90;;;;;;5051252;28;20045;-77
2023/07/30 05:54:08;;;;;;;13.23;2.80;;;17.30;99.90;;;;;;5050464;28;20493;-77
2023/07/30 05:56:54;;;;;;;8.75;1.77;;;17.40;99.90;;;;;;5032709;28;20547;-77
2023/07/30 05:59:40;;;;;;;15.45;2.95;;;17.40;99.90;;;;;;5032003;28;20049;-76
2023/07/30 06:02:26;;;;;;;11.98;2.40;;;17.40;99.90;;;;;;5050766;28;20369;-76
2023/07/30 06:05:13;;;;;;;17.85;2.88;;;17.30;99.90;;;;;;5051382;28;20089;-77
2023/07/30 06:08:01;;;;;;;13.70;2.40;;;17.30;99.90;;;;;;5055072;28;20053;-77
2023/07/30 06:10:49;;;;;;;17.40;2.97;;;17.30;99.90;;;;;;5040608;28;20048;-77
2023/07/30 06:13:36;;;;;;;11.43;2.92;;;17.30;99.90;;;;;;5054734;28;20045;-77
2023/07/30 06:16:23;;;;;;;12.98;2.65;;;17.30;99.90;;;;;;5054522;28;20088;-77
2023/07/30 06:19:09;;;;;;;12.25;3.03;;;17.30;99.90;;;;;;5045874;28;20056;-77
2023/07/30 06:21:55;;;;;;;12.40;2.85;;;17.40;99.90;;;;;;5052089;28;20049;-77
2023/07/30 06:24:42;;;;;;;16.95;2.50;;;17.40;99.90;;;;;;5054198;28;20516;-77
2023/07/30 06:27:28;;;;;;;14.50;2.97;;;17.30;99.90;;;;;;5054568;28;20080;-77
2023/07/30 06:30:14;;;;;;;9.40;2.35;;;17.40;99.90;;;;;;5053539;28;20060;-77
2023/07/30 06:33:01;;;;;;;11.52;2.78;;;17.40;99.90;;;;;;5054406;28;20060;-77
2023/07/30 06:35:47;;;;;;;14.68;2.92;;;17.40;99.90;;;;;;5052093;28;20057;-76
2023/07/30 06:38:33;;;;;;;13.93;2.53;;;17.40;99.90;;;;;;5052902;28;20205;-76
2023/07/30 06:41:21;;;;;;;14.30;2.58;;;17.40;99.90;;;;;;5038306;28;20516;-76
2023/07/30 06:44:07;;;;;;;11.60;2.83;;;17.40;99.90;;;;;;5053793;28;20053;-77
2023/07/30 06:46:53;;;;;;;11.90;2.20;;;17.50;99.90;;;;;;5054658;28;20139;-77
2023/07/30 06:49:39;;;;;;;14.15;2.65;;;17.50;99.90;;;;;;5053066;28;20067;-77
2023/07/30 06:52:25;;;;;;;11.20;2.80;;;17.60;99.90;;;;;;5057105;28;20084;-77
2023/07/30 06:55:11;;;;;;;17.70;3.42;;;17.70;99.90;;;;;;5054113;28;20052;-77
2023/07/30 06:57:57;;;;;;;14.18;2.72;;;17.70;99.90;;;;;;5054619;28;20056;-77
2023/07/30 07:00:46;;;;;;;18.40;3.28;;;17.80;99.90;;;;;;5056912;28;20060;-79
2023/07/30 07:03:33;;;;;;;18.65;3.08;;;18.00;99.90;;;;;;5052080;28;20049;-77
2023/07/30 07:06:19;;;;;;;12.52;3.25;;;18.30;99.90;;;;;;5052800;28;20041;-77
2023/07/30 07:09:05;;;;;;;14.15;3.03;;;18.50;99.90;;;;;;5055341;28;20074;-77
2023/07/30 07:11:51;;;;;;;12.15;2.67;;;18.70;99.90;;;;;;5052409;28;20064;-77
2023/07/30 07:14:39;;;;;;;17.50;3.45;;;18.80;99.90;;;;;;5025719;28;20049;-76
2023/07/30 07:17:25;;;;;;;18.58;2.88;;;18.80;99.90;;;;;;5052793;28;20053;-77
2023/07/30 07:20:11;;;;;;;17.92;2.80;;;18.70;99.90;;;;;;5053072;28;20096;-78
2023/07/30 07:22:57;;;;;;;15.93;2.20;;;18.70;99.90;;;;;;5053593;28;20048;-77
2023/07/30 07:25:44;;;;;;;12.80;2.78;;;18.70;99.90;;;;;;5052545;28;20572;-77
2023/07/30 07:28:30;;;;;;;17.08;3.08;;;18.70;99.90;;;;;;5052191;28;20053;-76
2023/07/30 07:31:16;;;;;;;14.10;2.67;;;18.60;99.90;;;;;;5054188;28;20049;-80
2023/07/30 07:34:03;;;;;;;15.85;3.75;;;18.30;99.90;;;;;;5054121;28;20045;-78
2023/07/30 07:36:50;;;;;;;20.38;3.10;;;18.20;99.90;;;;;;5053389;28;20084;-76
2023/07/30 07:39:36;;;;;;;15.00;2.97;;;17.90;99.90;;;;;;5052749;28;20049;-77
2023/07/30 07:42:22;;;;;;;12.18;3.05;;;17.60;99.90;;;;;;5036681;28;20045;-76
2023/07/30 07:45:09;;;;;;;13.65;3.20;;;17.40;99.90;;;;;;5052689;28;20045;-78
2023/07/30 07:47:55;;;;;;;13.68;3.20;;;17.40;99.90;;;;;;5053065;28;20053;-78
2023/07/30 07:50:41;;;;;;;15.80;2.50;;;17.50;99.90;;;;;;5051897;28;20107;-76
2023/07/30 07:53:27;;;;;;;15.65;3.40;;;17.60;99.90;;;;;;5052747;28;20140;-76
2023/07/30 07:56:14;;;;;;;12.50;3.38;;;17.80;99.90;;;;;;5052072;28;20048;-77
2023/07/30 07:59:00;;;;;;;15.07;2.70;;;17.80;99.90;;;;;;5053231;28;20132;-77
2023/07/30 08:01:46;;;;;;;17.90;2.97;;;17.90;99.90;;;;;;5052705;28;20139;-78
2023/07/30 08:04:32;;;;;;;19.75;3.88;;;17.90;99.90;;;;;;5052682;28;20052;-77
2023/07/30 08:07:18;;;;;;;17.42;3.35;;;17.90;99.90;;;;;;5051638;28;20041;-75
2023/07/30 08:10:05;;;;;;;16.17;2.95;;;17.90;99.90;;;;;;5051867;28;20060;-75
2023/07/30 08:12:52;;;;;;;15.70;3.72;;;17.90;99.90;;;;;;5052704;28;20052;-77
2023/07/30 08:15:38;;;;;;;15.68;2.35;;;17.90;99.90;;;;;;5052083;28;20052;-78
2023/07/30 08:18:24;;;;;;;11.73;2.70;;;17.90;99.90;;;;;;5051530;28;20057;-77
2023/07/30 08:21:10;;;;;;;15.02;3.40;;;17.90;99.90;;;;;;5033789;28;20859;-77
2023/07/30 08:23:59;;;;;;;12.98;3.60;;;18.00;99.90;;;;;;5037683;28;20048;-77
2023/07/30 08:26:46;;;;;;;14.52;3.00;;;18.00;99.90;;;;;;5051539;28;20099;-77
2023/07/30 08:29:32;;;;;;;13.60;3.70;;;18.00;99.90;;;;;;5051366;28;20045;-76
2023/07/30 08:32:19;;;;;;;19.08;4.05;;;18.10;99.90;;;;;;5034134;28;20049;-76
2023/07/30 08:35:05;;;;;;;14.73;2.75;;;18.10;99.90;;;;;;5051366;28;20049;-78
2023/07/30 08:37:51;;;;;;;16.75;2.90;;;18.20;99.90;;;;;;5034023;28;20053;-77
2023/07/30 08:40:38;;;;;;;15.43;3.30;;;18.20;99.90;;;;;;5037145;28;20049;-78
2023/07/30 08:43:24;;;;;;;16.58;3.15;;;18.20;99.90;;;;;;5051092;28;20504;-77
2023/07/30 08:46:10;;;;;;;9.88;2.65;;;18.30;99.90;;;;;;5019942;28;20536;-77
2023/07/30 08:48:57;;;;;;;17.20;2.85;;;18.30;99.90;;;;;;5036461;28;20049;-77
2023/07/30 08:51:44;;;;;;;18.00;2.63;;;18.30;99.90;;;;;;5034046;28;20140;-77
2023/07/30 08:54:31;;;;;;;13.52;2.55;;;18.30;99.90;;;;;;5037293;28;20120;-78
2023/07/30 08:57:19;;;;;;;17.17;3.28;;;18.30;99.90;;;;;;5033107;28;20053;-78
2023/07/30 09:00:14;;;;;;;12.65;2.85;;;18.40;99.90;;;;;;5051144;28;20052;-77
2023/07/30 09:03:04;;;;;;;14.35;3.42;;;18.30;99.90;;;;;;5051197;28;20048;-77
2023/07/30 09:05:50;;;;;;;13.95;2.55;;;18.20;99.90;;;;;;5051224;28;20057;-77
2023/07/30 09:08:36;;;;;;;17.42;3.25;;;18.20;99.90;;;;;;5051155;28;20048;-77
2023/07/30 09:11:29;;;;;;;14.25;3.78;;;18.30;99.90;;;;;;5050948;28;20036;-76
2023/07/30 09:14:20;;;;;;;17.77;2.78;;;18.30;99.90;;;;;;5050773;28;20057;-77
2023/07/30 09:17:06;;;;;;;15.30;3.45;;;18.40;99.90;;;;;;5033977;28;20407;-76
2023/07/30 09:19:53;;;;;;;17.27;3.17;;;18.30;99.90;;;;;;5049617;28;20178;-78
2023/07/30 09:22:40;;;;;;;12.60;2.42;;;18.40;99.90;;;;;;5036123;28;20045;-78
2023/07/30 09:25:26;;;;;;;11.35;2.20;;;18.50;99.90;;;;;;5050574;28;20374;-77
2023/07/30 09:28:13;;;;;;;15.32;3.45;;;18.70;99.90;;;;;;5050890;28;20041;-77
2023/07/30 09:31:06;;;;;;;9.63;2.45;;;19.00;99.90;;;;;;5050663;28;20531;-78
2023/07/30 09:33:53;;;;;;;10.80;3.05;;;19.00;99.90;;;;;;5032949;28;20106;-79
2023/07/30 09:36:39;;;;;;;9.63;2.47;;;19.10;99.90;;;;;;5050456;28;20460;-77
2023/07/30 09:39:26;;;;;;;15.68;3.25;;;19.20;99.90;;;;;;5051956;28;20047;-76
2023/07/30 09:42:12;;;;;;;9.90;2.20;;;19.20;99.90;;;;;;5056418;28;20052;-77
2023/07/30 09:45:00;;;;;;;10.95;2.42;;;19.10;99.90;;;;;;5041089;28;20145;-77
2023/07/30 09:47:50;;;;;;;11.02;2.55;;;19.20;99.90;;;;;;5058588;28;20562;-77
2023/07/30 09:50:37;;;;;;;10.55;2.17;;;19.20;99.90;;;;;;5039843;28;20052;-77
2023/07/30 09:53:24;;;;;;;10.60;2.35;;;19.30;99.90;;;;;;5056324;28;20045;-77
2023/07/30 09:56:10;;;;;;;11.57;2.13;;;19.30;99.90;;;;;;5055902;28;20124;-77
2023/07/30 09:58:57;;;;;;;18.88;3.10;;;19.20;99.90;;;;;;5055924;28;20049;-77
2023/07/30 10:01:45;;;;;;;14.32;2.63;;;19.40;99.90;;;;;;5054906;28;20060;-77
2023/07/30 10:04:34;;;;;;;12.10;2.35;;;19.60;99.90;;;;;;5055609;28;20090;-77
2023/07/30 10:07:23;;;;;;;13.65;2.45;;;20.20;99.90;;;;;;5055163;28;20048;-78
2023/07/30 10:10:11;;;;;;;13.07;2.70;;;20.10;99.90;;;;;;5022961;28;20053;-76
2023/07/30 10:13:03;;;;;;;16.90;3.53;;;20.10;99.90;;;;;;5054721;28;20132;-78
2023/07/30 10:15:50;;;;;;;12.13;2.50;;;19.80;99.90;;;;;;5054052;28;20056;-77
2023/07/30 10:18:40;;;;;;;13.40;2.80;;;19.70;99.90;;;;;;5022546;28;20110;-77
2023/07/30 10:21:29;;;;;;;10.27;1.95;;;19.60;99.90;;;;;;5036807;28;20053;-77
2023/07/30 10:24:15;;;;;;;13.57;2.92;;;19.90;99.90;;;;;;5054530;28;20049;-76
2023/07/30 10:27:12;;;;;;;13.80;3.63;;;20.50;99.90;;;;;;5038653;28;20120;-77
2023/07/30 10:30:15;;;;;;;15.60;2.85;;;20.60;99.90;;;;;;5053781;28;20135;-77
2023/07/30 10:33:03;;;;;;;10.27;2.42;;;20.50;99.90;;;;;;5053434;28;20053;-76
2023/07/30 10:35:55;;;;;;;22.10;2.88;;;20.60;99.90;;;;;;5054281;28;20048;-77
2023/07/30 10:38:42;;;;;;;10.95;2.40;;;21.10;99.90;;;;;;5039881;28;20055;-76
2023/07/30 10:41:28;;;;;;;12.45;2.95;;;21.00;99.90;;;;;;5053657;28;20053;-77
2023/07/30 10:44:34;;;;;;;10.05;2.00;;;20.60;99.90;;;;;;5054326;28;20132;-78
2023/07/30 10:47:20;;;;;;;19.23;2.67;;;20.70;99.90;;;;;;5054479;28;20064;-76
2023/07/30 10:50:08;;;;;;;10.32;2.15;;;20.60;99.90;;;;;;5022767;28;20048;-78
2023/07/30 10:52:54;;;;;;;9.13;2.15;;;20.60;99.90;;;;;;5053481;28;20128;-78
2023/07/30 10:55:40;;;;;;;14.13;2.03;;;20.70;99.90;;;;;;5055891;28;20049;-78
2023/07/30 10:58:27;;;;;;;9.88;1.90;;;20.50;99.90;;;;;;5036772;28;20112;-78
2023/07/30 11:01:13;;;;;;;7.80;2.42;;;20.20;99.90;;;;;;5055576;28;20049;-77
2023/07/30 11:03:59;;;;;;;15.18;2.38;;;20.40;99.90;;;;;;5038940;28;20182;-77
2023/07/30 11:06:49;;;;;;;24.65;2.47;;;20.70;99.90;;;;;;5054357;28;20045;-77
2023/07/30 11:09:39;;;;;;;13.30;3.15;;;20.80;99.90;;;;;;5053605;28;20055;-77
2023/07/30 11:12:25;;;;;;;10.77;2.03;;;21.20;99.90;;;;;;5039364;28;20080;-77
2023/07/30 11:15:11;;;;;;;14.20;2.35;;;21.50;99.90;;;;;;5035630;28;20049;-77
2023/07/30 11:17:58;;;;;;;12.15;2.20;;;21.70;99.90;;;;;;5037768;28;20088;-78
2023/07/30 11:20:49;;;;;;;7.78;2.60;;;21.90;99.90;;;;;;5052951;28;20516;-78
2023/07/30 11:23:37;;;;;;;11.65;2.55;;;21.90;99.90;;;;;;5053318;28;20071;-76
2023/07/30 11:26:23;;;;;;;11.77;2.10;;;21.50;99.90;;;;;;5053043;28;20049;-77
2023/07/30 11:29:16;;;;;;;13.02;2.40;;;21.80;99.90;;;;;;5037920;28;20138;-77
2023/07/30 11:32:02;;;;;;;13.40;3.20;;;21.90;99.90;;;;;;5053145;28;20136;-77
2023/07/30 11:34:49;;;;;;;11.23;2.47;;;21.80;99.90;;;;;;5034907;28;20048;-78
2023/07/30 11:37:38;;;;;;;12.40;3.00;;;22.10;99.90;;;;;;5051861;28;20080;-80
2023/07/30 11:40:24;;;;;;;12.65;1.92;;;22.00;99.90;;;;;;5053007;28;20122;-76
2023/07/30 11:43:10;;;;;;;10.45;2.05;;;22.20;99.90;;;;;;5052744;28;20053;-77
2023/07/30 11:46:17;;;;;;;7.85;1.92;;;22.10;99.90;;;;;;5052556;28;20087;-78
2023/07/30 11:49:17;;;;;;;10.15;1.92;;;21.80;99.90;;;;;;5053214;28;20579;-77
2023/07/30 11:52:10;;;;;;;8.77;2.05;;;22.20;99.90;;;;;;5052546;28;20046;-77
2023/07/30 11:55:03;;;;;;;8.80;1.67;;;22.60;99.90;;;;;;5053020;28;20404;-78
2023/07/30 11:57:50;;;;;;;10.30;1.90;;;22.20;99.90;;;;;;5051438;28;20053;-78
2023/07/30 12:00:42;;;;;;;10.63;2.42;;;22.60;99.90;;;;;;5052673;28;20056;-78
2023/07/30 12:03:29;;;;;;;8.32;2.20;;;22.30;99.90;;;;;;5052752;28;20060;-78
2023/07/30 12:06:15;;;;;;;10.75;1.77;;;21.80;99.90;;;;;;5051882;28;20143;-77
2023/07/30 12:09:01;;;;;;;8.90;1.92;;;21.80;99.90;;;;;;5034767;28;20119;-76
2023/07/30 12:11:48;;;;;;;12.10;2.13;;;22.00;99.90;;;;;;5051925;28;20403;-78
2023/07/30 12:14:53;;;;;;;8.20;1.90;;;22.20;99.70;;;;;;5051271;28;20056;-76
2023/07/30 12:17:39;;;;;;;10.23;1.95;;;22.70;99.70;;;;;;5051421;28;20052;-78
2023/07/30 12:20:28;;;;;;;9.95;2.20;;;22.60;99.40;;;;;;5034011;28;20091;-78
2023/07/30 12:23:14;;;;;;;8.40;2.22;;;22.80;98.30;;;;;;5034445;28;20144;-76
2023/07/30 12:26:04;;;;;;;6.18;1.27;;;22.60;98.50;;;;;;5051456;28;20066;-77
2023/07/30 12:28:50;;;;;;;6.90;1.38;;;22.80;98.00;;;;;;5051900;28;20146;-77
2023/07/30 12:31:36;;;;;;;11.38;1.73;;;22.90;98.40;;;;;;5020776;28;20053;-77
2023/07/30 12:34:23;;;;;;;11.52;1.60;;;22.90;97.80;;;;;;5050655;28;20375;-75
2023/07/30 12:37:09;;;;;;;8.40;2.30;;;23.40;97.70;;;;;;5051637;28;20048;-77
2023/07/30 12:39:55;;;;;;;9.57;1.60;;;23.30;98.20;;;;;;5033599;28;20087;-77
2023/07/30 12:42:42;;;;;;;7.78;1.70;;;23.20;98.10;;;;;;5051725;28;20496;-77
2023/07/30 12:45:28;;;;;;;9.98;1.33;;;23.10;97.50;;;;;;5050786;28;20045;-75
2023/07/30 12:48:14;;;;;;;7.45;1.70;;;23.10;96.60;;;;;;5034437;28;20052;-76
2023/07/30 12:51:02;;;;;;;8.48;1.23;;;23.00;96.80;;;;;;5051811;28;20057;-77
2023/07/30 12:53:48;;;;;;;11.48;1.48;;;23.10;97.60;;;;;;5051464;28;20068;-78
2023/07/30 12:56:34;;;;;;;7.72;1.40;;;23.40;96.50;;;;;;5051669;28;20056;-77
2023/07/30 12:59:20;;;;;;;6.47;1.27;;;23.80;96.30;;;;;;5051856;28;20424;-76
2023/07/30 13:02:07;;;;;;;5.70;1.10;;;23.50;96.00;;;;;;5033972;28;20111;-76
2023/07/30 13:04:53;;;;;;;4.68;1.40;;;23.90;95.80;;;;;;5033955;28;20377;-77
2023/07/30 13:07:39;;;;;;;8.38;1.88;;;24.30;95.30;;;;;;5050143;28;20041;-78
2023/07/30 13:10:25;;;;;;;9.20;1.55;;;24.30;95.20;;;;;;5051030;28;20112;-76
2023/07/30 13:13:12;;;;;;;14.57;1.65;;;23.80;95.30;;;;;;5034002;28;20092;-76
2023/07/30 13:16:01;;;;;;;7.47;2.22;;;23.20;96.00;;;;;;5049625;28;20041;-77
2023/07/30 13:18:48;;;;;;;8.73;1.00;;;22.80;97.10;;;;;;5037024;28;20061;-77
2023/07/30 13:21:34;;;;;;;10.98;1.90;;;22.40;96.80;;;;;;5034226;28;20056;-77
2023/07/30 13:24:20;;;;;;;6.95;1.30;;;22.60;98.20;;;;;;5052227;28;20049;-77
2023/07/30 13:27:07;;;;;;;6.40;1.40;;;22.60;99.00;;;;;;5034101;28;20144;-77
2023/07/30 13:29:53;;;;;;;7.13;1.38;;;22.80;97.70;;;;;;5053560;28;20522;-77
2023/07/30 13:32:39;;;;;;;6.25;1.20;;;22.50;97.50;;;;;;5056117;28;20052;-76
2023/07/30 13:35:25;;;;;;;9.73;1.60;;;22.20;98.50;;;;;;5039051;28;20125;-77
2023/07/30 13:38:11;;;;;;;9.43;2.00;;;21.90;99.30;;;;;;5058036;28;20455;-77
2023/07/30 13:40:57;;;;;;;15.13;2.40;;;21.60;99.90;;;;;;5054667;28;20055;-77
2023/07/30 13:43:44;;;;;;;14.30;2.63;;;21.00;99.90;;;;;;5053729;28;20052;-76
2023/07/30 13:46:30;;;;;;;13.10;2.95;;;20.60;99.90;;;;;;5052169;28;20118;-77
2023/07/30 13:49:16;;;;;;;11.57;1.73;;;20.30;99.90;;;;;;5051253;28;20044;-78
2023/07/30 13:52:02;;;;;;;9.90;2.00;;;19.70;99.90;;;;;;5033794;28;20099;-76
2023/07/30 13:54:48;;;;;;;16.23;3.03;;;19.50;99.90;;;;;;5051154;28;20045;-76
2023/07/30 13:57:35;;;;;;;16.17;2.83;;;19.40;99.90;;;;;;5035879;28;20060;-78
2023/07/30 14:00:21;;;;;;;11.57;1.88;;;19.10;99.90;;;;;;5050664;28;20052;-74
2023/07/30 14:03:07;;;;;;;9.70;1.88;;;18.80;99.90;;;;;;5049945;28;20057;-77
2023/07/30 14:05:53;;;;;;;6.45;1.40;;;18.90;99.90;;;;;;5050436;28;20049;-76
2023/07/30 14:08:39;;;;;;;7.40;1.63;;;19.50;99.90;;;;;;5033360;28;20052;-77
2023/07/30 14:11:27;;;;;;;10.48;1.88;;;21.30;99.90;;;;;;5032996;28;20121;-75
2023/07/30 14:14:13;;;;;;;6.75;1.50;;;22.70;99.90;;;;;;5049936;28;20522;-77
2023/07/30 14:17:05;;;;;;;10.68;1.60;;;23.80;99.90;;;;;;5050613;28;20049;-76
2023/07/30 14:19:52;;;;;;;10.00;2.28;;;23.30;99.90;;;;;;5049794;28;20045;-77